AirNav   Air Wisconsin Up To $57,000 Bonus
 
 1847 users online  

2TX Salado Airport
Salado, Texas, USA

GOING TO SALADO?


FAA INFORMATION EFFECTIVE 11 AUGUST 2022

Location

FAA Identifier: 2TX
Lat/Long: 30-55-13.5000N 097-32-24.0000W
30-55.225000N 097-32.400000W
30.9204167,-97.5400000
(estimated)
Elevation: 689 ft. / 210 m (estimated)
Variation: 07E (1985)
From city: 2 miles S of SALADO, TX
Time zone: UTC -5 (UTC -6 during Standard Time)
Zip code: 76571

Airport Operations

Airport use: Open to the public
Activation date: 04/1975
Control tower: no
ARTCC: FORT WORTH CENTER
FSS: SAN ANGELO FLIGHT SERVICE STATION
NOTAMs facility: SJT (NOTAM-D service available)
Attendance: UNATNDD
Wind indicator: yes
Segmented circle: no

Airport Communications

CTAF: 122.9
WX AWOS-3PT at ILE (12 nm NW): 128.575 (254-690-3131)
WX AWOS-3PT at TPL (15 nm NE): 134.975 (254-774-8337)
WX AWOS-3PT at GTU (16 nm SW): PHONE 512-869-3430

Nearby radio navigation aids

VOR radial/distance  VOR name  Freq  Var
GRKr109/15.6GRAY VOR/DME111.8007E
CWKr353/32.5CENTEX VORTAC112.8006E
AGJr112/34.8GOOCH SPRINGS VORTAC112.5005E

 
NDB name  Hdg/Dist  Freq  Var  ID
IRESH121/10.727805EIL .. .-..

Airport Services

Parking: tiedowns
Airframe service: NONE
Powerplant service: NONE
Bottled oxygen: NONE
Bulk oxygen: NONE

Runway Information

Runway 2/20

Dimensions: 3494 x 40 ft. / 1065 x 12 m
Surface: asphalt, in excellent condition
RUNWAY 2  RUNWAY 20
Latitude: 30-54.950000N30-55.500000N
Longitude: 097-32.500000W097-32.300000W
Elevation: 689.0 ft.680.0 ft.
Traffic pattern: leftleft
Markings: basic, in good conditionbasic, in good condition
Touchdown point: yes, no lightsyes, no lights

Runway 1/19

Dimensions: 3190 x 100 ft. / 972 x 30 m
Surface: turf/dirt, in fair condition
RUNWAY 1  RUNWAY 19
Traffic pattern: leftright
Obstructions: 5 ft. fence10 ft. road

Airport Ownership and Management from official FAA records

Ownership: Privately-owned
Owner: SALADO AIRPORT LLC
15771 SOUTH I35
SALADO, TX 76571
Phone 512-507-6521
SALADOAIRPORT.COM
Manager: JEREMY HINTZ
15771 SOUTH I35
SALADO, TX 76571
Phone 830-734-2346
JERHINTZ@GMAIL.COM

Airport Operational Statistics

Aircraft based on the field: 1
Single engine airplanes: 1
    
Aircraft operations: avg 57/week *
97% local general aviation
3% transient general aviation
* for 12-month period ending 31 December 2018

Additional Remarks

RWY 01/19 UNUSBL DURG AND 24 HRS AFTER HEAVY RAIN. RWY SOFT WHEN WET, CALL TO CONFIRM COND.
FOR CD CTC FORT WORTH ARTCC AT 817-858-7584.
RWY 01/19 DEFINED BY MOWING.
TWO ANTENNAS 1/2 TO 3/4 MILE NORTH OF ARPT.

Instrument Procedures

There are no published instrument procedures at 2TX.

Some nearby airports with instrument procedures:

KILE - Skylark Field Airport (12 nm NW)
KTPL - Draughon-Miller Central Texas Regional Airport (15 nm NE)
KHLR - Hood AHP Airport (16 nm NW)
KGTU - Georgetown Executive Airport (16 nm SW)
KGRK - Robert Gray Army Airfield (17 nm NW)
 
Loc | Ops | Rwys | IFR | FBO | Links
Com | Nav | Svcs | Stats | Notes
Area around 2TX (Salado Airport)
 
Road maps at: MapQuest Bing Google
 
Aerial photo
WARNING: Photo may not be current or correct
Aerial photo of 2TX (Salado Airport)
Do you have a better or more recent aerial photo of Salado Airport that you would like to share? If so, please send us your photo.

 
Sectional chart

 
Airport distance calculator
Flying to Salado Airport? Find the distance to fly.

From to 2TX

Sunrise and sunset
Times for 18-Aug-2022
 Local
(UTC-5)
 Zulu
(UTC)
Morning civil twilight06:3411:34
Sunrise06:5911:59
Sunset20:0901:09
Evening civil twilight20:3401:34

Current date and time
Zulu (UTC)  18-Aug-2022 18:35:58
Local (UTC-5)  18-Aug-2022 13:35:58
 
METAR
KILE 
11nm NW 
181756Z AUTO 05009KT 10SM VCTS CLR 35/22 A2995 RMK AO2 LTG DSNT SE-W TSB24E39B52 SLP125 T03500217 10350 20250 58014
KTPL 
15nm NE 
181751Z AUTO 34010G18KT 10SM CLR 33/22 RMK AO2 LTG DSNT S-W SLPNO 6//// T03330222 10333 20233 $
KHLR 
16nm NW 
181758Z AUTO 03011G18KT 10SM CLR 34/21 A2995 RMK AO2 LTG DSNT S-W SLP129 T03370207 10339 20254 58013
KGTU 
17nm SW 
181820Z 34021G34KT 1 3/4SM VCTS +RA FEW009 BKN049 OVC060 27/22 A2995 RMK AO2 PK WND 04034/1814 WSHFT 1759 VIS 1 1/2V3 LTG DSNT NW-E RAB03 P0034
KGRK 
17nm NW 
181800Z 06010KT 10SM -TSRA SCT046 SCT065 33/21 A2993 RMK AO2A SLP122
KT74 
21nm S 
181815Z AUTO 25003KT 10SM SCT075 35/20 A2991 RMK AO2 LTG DSNT E AND NW PWINO T03450204
TAF
KGRK 
17nm NW 
181650Z 1816/1922 36009KT 9999 SCT045 SCT080 QNH2988INS BECMG 1817/1818 36009KT 8000 -TSRA SCT050CB BKN060 BKN080 QNH2987INS TEMPO 1818/1824 VRB20G35KT 4800 TSRA SCT055CB BKN060 BECMG 1901/1902 01006KT 9999 VCTS SCT065CB BKN080 QNH2989INS BECMG 1908/1909 09006KT 9999 NSW SCT020 BKN100 QNH2993INS BECMG 1919/1920 14009KT 9999 VCTS SCT050CB SCT090 SCT250 QNH2988INS TX35/1820Z TN23/1912Z
NOTAMs
Click for the latest NOTAMs
NOTAMs are issued by the DoD/FAA and will open in a separate window not controlled by AirNav.

 

 
 

Would you like to see your business listed on this page?

 If your business provides an interesting product or service to pilots, flight crews, aircraft, or users of the Salado Airport, you should consider listing it here.  To start the listing process, click on the button below
 
Add a business
 

Other Pages about Salado Airport

Update a link
 
Copyright © AirNav, LLC. All rights reserved. Privacy Policy  Contact